»·PEaware :: N102TX KSNA-KHMT

N102TX :: KSNA-KHMT

FLIGHT INFORMATION

Flight Status: Arrived
Operator: Privately registered:
United States
More flights under this callsign
Pilot: Gus A. (4018)
Aircraft: PIPER PA-28 CHEROKEE ARCHER
(P28A)
More flights by this aircraft type
Origin: KSNA John Wayne-Orange Co
United States
Destination: KHMT Hemet-Ryan
United States
More flights between these airports :: More routes between these airports
Route: +
File this flight plan on PilotEdge
Remarks:
Altitude:
(Current/Filed)
0ft
Speed:
(Current/Filed)
0kts
Departed: 05-May-18 01:05 PM
Arrived: 05-May-18 01:37 PM
Distance/Time
Traveled:
43nm/0:32
Distance/Time
To Go:
Arrived

Flight Plot

Page will automatically refresh every two minutes.


Map Options




Map Legend


Flown Route
Filed Route
Departure Airport
Arrival Airport
Navaid (VOR, NDB)
Fix

Horizontal Profiles

Position Reports

Time Latitude Longitude Heading Altitude Ground
Speed
05-May-18 12:54 33.670846 -117.868238 215 59ft 0kts
05-May-18 12:55 33.670846 -117.868238 215 59ft 0kts
05-May-18 12:55 33.670846 -117.868238 215 59ft 0kts
05-May-18 12:56 33.670846 -117.868238 215 59ft 0kts
05-May-18 12:57 33.670846 -117.868238 215 59ft 0kts
05-May-18 12:58 33.670846 -117.868238 215 59ft 0kts
05-May-18 12:59 33.670907 -117.868544 306 59ft 4kts
05-May-18 13:00 33.672729 -117.867692 41 59ft 13kts
05-May-18 13:01 33.675550 -117.866172 26 59ft 11kts
05-May-18 13:02 33.678541 -117.864290 30 59ft 13kts
05-May-18 13:03 33.679989 -117.863663 298 59ft 0kts
05-May-18 13:04 33.670030 -117.870788 209 227ft 77kts
05-May-18 13:05 33.655460 -117.864329 69 810ft 88kts
05-May-18 13:06 33.653924 -117.835679 93 1451ft 86kts
05-May-18 13:07 33.652528 -117.806808 78 2040ft 88kts
05-May-18 13:08 33.663810 -117.783963 49 2588ft 87kts
05-May-18 13:09 33.679543 -117.761960 41 3162ft 90kts
05-May-18 13:10 33.698282 -117.740811 23 3520ft 103kts
05-May-18 13:11 33.726326 -117.732818 10 3644ft 109kts
05-May-18 13:12 33.756448 -117.726666 7 3708ft 110kts
05-May-18 13:13 33.786606 -117.721119 6 3792ft 109kts
05-May-18 13:14 33.816639 -117.714949 17 3866ft 110kts
05-May-18 13:15 33.827687 -117.682779 81 3908ft 111kts
05-May-18 13:16 33.832726 -117.645848 78 3933ft 112kts
05-May-18 13:17 33.835637 -117.608423 84 3914ft 113kts
05-May-18 13:18 33.823511 -117.571288 124 3529ft 120kts
05-May-18 13:19 33.803755 -117.538943 126 3329ft 118kts
05-May-18 13:20 33.783255 -117.508636 126 3235ft 116kts
05-May-18 13:21 33.762943 -117.478650 128 3164ft 115kts
05-May-18 13:22 33.743967 -117.447656 124 3102ft 115kts
05-May-18 13:23 33.730235 -117.412956 106 3035ft 115kts
05-May-18 13:24 33.724644 -117.376756 84 3179ft 105kts
05-May-18 13:25 33.727167 -117.340721 85 3290ft 113kts
05-May-18 13:26 33.728831 -117.302195 92 3260ft 116kts
05-May-18 13:27 33.730465 -117.263567 90 3345ft 107kts
05-May-18 13:28 33.728197 -117.226593 94 3394ft 113kts
05-May-18 13:29 33.731860 -117.189250 79 3421ft 113kts
05-May-18 13:30 33.735477 -117.151585 87 3449ft 113kts
05-May-18 13:31 33.737028 -117.113762 87 3362ft 116kts
05-May-18 13:32 33.736328 -117.074823 93 3055ft 118kts
05-May-18 13:33 33.740339 -117.036303 65 2551ft 116kts
05-May-18 13:34 33.752369 -117.002016 68 2363ft 108kts
05-May-18 13:35 33.741631 -117.002854 255 1850ft 90kts
05-May-18 13:36 33.733155 -117.023550 232 1515ft 30kts
05-May-18 13:37 33.730982 -117.022377 125 1515ft 9kts
05-May-18 13:38 33.730605 -117.021715 308 1515ft 0kts
05-May-18 13:39 33.730605 -117.021715 308 1515ft 0kts
05-May-18 13:40 33.730605 -117.021715 308 1515ft 0kts
05-May-18 13:41 33.730605 -117.021715 308 1515ft 0kts
05-May-18 13:42 33.730605 -117.021715 308 1515ft 0kts
05-May-18 13:44 33.730605 -117.021715 308 1515ft 0kts
05-May-18 13:45 33.730605 -117.021715 308 1515ft 0kts
05-May-18 13:46 33.730606 -117.021715 308 1515ft 0kts
05-May-18 13:47 33.730606 -117.021715 308 1515ft 0kts
05-May-18 13:48 33.730606 -117.021715 308 1515ft 0kts
05-May-18 13:49 33.730606 -117.021715 308 1515ft 0kts
05-May-18 13:50 33.732511 -117.023195 62 1515ft 15kts
05-May-18 13:51 33.734425 -117.018781 66 1515ft 13kts

Navigation Log

Ident Type
Flight plan parsing failed, navigation log unavailable